sensor_id;sensor_type;location;lat;lon;timestamp;pressure;altitude;pressure_sealevel;temperature;humidity
28000;BME280;15328;50.860;10.562;2023-02-19T00:04:54;96509.28;;;9.39;71.61
28000;BME280;15328;50.860;10.562;2023-02-19T00:09:55;96497.66;;;9.40;71.04
28000;BME280;15328;50.860;10.562;2023-02-19T00:14:55;96516.44;;;9.38;71.43
28000;BME280;15328;50.860;10.562;2023-02-19T00:19:57;96499.44;;;9.52;70.96
28000;BME280;15328;50.860;10.562;2023-02-19T00:24:57;96494.53;;;9.49;70.92
28000;BME280;15328;50.860;10.562;2023-02-19T00:29:58;96489.88;;;9.45;70.48
28000;BME280;15328;50.860;10.562;2023-02-19T00:34:58;96486.22;;;9.39;71.34
28000;BME280;15328;50.860;10.562;2023-02-19T00:39:58;96479.00;;;9.53;70.28
28000;BME280;15328;50.860;10.562;2023-02-19T00:44:58;96465.94;;;9.51;70.91
28000;BME280;15328;50.860;10.562;2023-02-19T00:49:59;96429.16;;;9.55;70.24
28000;BME280;15328;50.860;10.562;2023-02-19T00:54:59;96438.44;;;9.39;70.96
28000;BME280;15328;50.860;10.562;2023-02-19T01:00:00;96433.75;;;9.28;71.36
28000;BME280;15328;50.860;10.562;2023-02-19T01:05:00;96476.22;;;9.35;71.39
28000;BME280;15328;50.860;10.562;2023-02-19T01:10:00;96464.78;;;9.34;71.39
28000;BME280;15328;50.860;10.562;2023-02-19T01:15:01;96429.03;;;9.37;70.97
28000;BME280;15328;50.860;10.562;2023-02-19T01:20:01;96411.03;;;9.45;70.68
28000;BME280;15328;50.860;10.562;2023-02-19T01:25:02;96411.41;;;9.49;70.63
28000;BME280;15328;50.860;10.562;2023-02-19T01:30:02;96427.75;;;9.52;70.64
28000;BME280;15328;50.860;10.562;2023-02-19T01:35:03;96419.56;;;9.54;70.11
28000;BME280;15328;50.860;10.562;2023-02-19T01:40:04;96401.00;;;9.47;70.35
28000;BME280;15328;50.860;10.562;2023-02-19T01:50:28;96396.47;;;9.61;69.54
28000;BME280;15328;50.860;10.562;2023-02-19T01:55:28;96405.06;;;9.50;70.16
28000;BME280;15328;50.860;10.562;2023-02-19T02:00:29;96411.00;;;9.52;69.97
28000;BME280;15328;50.860;10.562;2023-02-19T02:05:43;96417.91;;;9.59;69.29
28000;BME280;15328;50.860;10.562;2023-02-19T02:10:45;96397.94;;;9.50;69.89
28000;BME280;15328;50.860;10.562;2023-02-19T02:15:59;96361.44;;;9.39;70.45
28000;BME280;15328;50.860;10.562;2023-02-19T02:21:16;96374.63;;;9.59;69.83
28000;BME280;15328;50.860;10.562;2023-02-19T02:26:29;96348.50;;;9.49;70.02
28000;BME280;15328;50.860;10.562;2023-02-19T02:31:40;96354.50;;;9.38;70.90
28000;BME280;15328;50.860;10.562;2023-02-19T02:36:44;96364.03;;;9.46;70.38
28000;BME280;15328;50.860;10.562;2023-02-19T02:41:50;96333.03;;;9.40;70.90
28000;BME280;15328;50.860;10.562;2023-02-19T02:47:13;96342.06;;;9.32;71.19
28000;BME280;15328;50.860;10.562;2023-02-19T02:52:36;96350.22;;;9.30;71.38
28000;BME280;15328;50.860;10.562;2023-02-19T02:57:56;96349.63;;;9.35;71.47
28000;BME280;15328;50.860;10.562;2023-02-19T03:02:57;96346.66;;;9.12;72.55
28000;BME280;15328;50.860;10.562;2023-02-19T03:08:08;96332.78;;;9.10;72.73
28000;BME280;15328;50.860;10.562;2023-02-19T03:13:14;96324.59;;;9.11;72.72
28000;BME280;15328;50.860;10.562;2023-02-19T03:18:34;96320.13;;;9.12;72.88
28000;BME280;15328;50.860;10.562;2023-02-19T03:23:55;96314.72;;;9.25;72.24
28000;BME280;15328;50.860;10.562;2023-02-19T03:29:34;96342.94;;;9.19;72.23
28000;BME280;15328;50.860;10.562;2023-02-19T03:34:43;96328.00;;;9.25;72.07
28000;BME280;15328;50.860;10.562;2023-02-19T03:39:45;96333.69;;;9.35;71.67
28000;BME280;15328;50.860;10.562;2023-02-19T03:50:26;96329.63;;;9.33;71.82
28000;BME280;15328;50.860;10.562;2023-02-19T04:00:56;96320.63;;;9.34;71.69
28000;BME280;15328;50.860;10.562;2023-02-19T04:06:01;96308.84;;;9.16;72.48
28000;BME280;15328;50.860;10.562;2023-02-19T04:11:03;96327.00;;;9.19;72.43
28000;BME280;15328;50.860;10.562;2023-02-19T04:16:07;96305.34;;;9.22;72.11
28000;BME280;15328;50.860;10.562;2023-02-19T04:21:09;96321.44;;;9.27;71.76
28000;BME280;15328;50.860;10.562;2023-02-19T04:26:10;96307.94;;;9.36;71.30
28000;BME280;15328;50.860;10.562;2023-02-19T04:31:12;96320.44;;;9.28;71.34
28000;BME280;15328;50.860;10.562;2023-02-19T04:36:13;96338.91;;;9.10;71.88
28000;BME280;15328;50.860;10.562;2023-02-19T04:41:13;96330.25;;;9.21;71.53
28000;BME280;15328;50.860;10.562;2023-02-19T04:46:13;96336.34;;;9.28;71.38
28000;BME280;15328;50.860;10.562;2023-02-19T04:51:14;96343.50;;;9.28;71.43
28000;BME280;15328;50.860;10.562;2023-02-19T04:56:15;96326.91;;;9.39;71.25
28000;BME280;15328;50.860;10.562;2023-02-19T05:01:17;96316.34;;;9.33;71.43
28000;BME280;15328;50.860;10.562;2023-02-19T05:06:18;96324.31;;;9.33;71.40
28000;BME280;15328;50.860;10.562;2023-02-19T05:11:18;96331.47;;;9.25;72.05
28000;BME280;15328;50.860;10.562;2023-02-19T05:16:18;96323.69;;;9.30;71.94
28000;BME280;15328;50.860;10.562;2023-02-19T05:21:19;96345.13;;;9.36;71.96
28000;BME280;15328;50.860;10.562;2023-02-19T05:26:21;96339.34;;;9.45;71.11
28000;BME280;15328;50.860;10.562;2023-02-19T05:31:22;96347.78;;;9.36;71.69
28000;BME280;15328;50.860;10.562;2023-02-19T05:36:23;96350.66;;;9.27;71.73
28000;BME280;15328;50.860;10.562;2023-02-19T05:41:29;96366.97;;;9.31;71.97
28000;BME280;15328;50.860;10.562;2023-02-19T05:46:29;96389.44;;;9.28;72.17
28000;BME280;15328;50.860;10.562;2023-02-19T05:51:30;96418.47;;;9.23;72.86
28000;BME280;15328;50.860;10.562;2023-02-19T05:56:40;96411.34;;;9.17;72.94
28000;BME280;15328;50.860;10.562;2023-02-19T06:01:41;96405.25;;;9.10;72.56
28000;BME280;15328;50.860;10.562;2023-02-19T06:06:42;96422.41;;;9.01;72.14
28000;BME280;15328;50.860;10.562;2023-02-19T06:11:43;96411.59;;;8.96;71.73
28000;BME280;15328;50.860;10.562;2023-02-19T06:16:43;96417.31;;;8.93;71.67
28000;BME280;15328;50.860;10.562;2023-02-19T06:21:43;96435.69;;;8.88;71.81
28000;BME280;15328;50.860;10.562;2023-02-19T06:26:44;96426.72;;;8.89;72.19
28000;BME280;15328;50.860;10.562;2023-02-19T06:31:45;96427.94;;;8.93;71.95
28000;BME280;15328;50.860;10.562;2023-02-19T06:36:48;96422.66;;;8.86;72.63
28000;BME280;15328;50.860;10.562;2023-02-19T06:41:48;96440.78;;;8.96;72.20
28000;BME280;15328;50.860;10.562;2023-02-19T06:46:49;96450.00;;;8.87;72.69
28000;BME280;15328;50.860;10.562;2023-02-19T06:51:50;96462.19;;;9.01;72.28
28000;BME280;15328;50.860;10.562;2023-02-19T06:56:51;96463.00;;;9.02;72.47
28000;BME280;15328;50.860;10.562;2023-02-19T07:01:51;96460.56;;;9.00;71.95
28000;BME280;15328;50.860;10.562;2023-02-19T07:06:52;96474.25;;;8.97;72.41
28000;BME280;15328;50.860;10.562;2023-02-19T07:11:52;96481.38;;;9.03;71.98
28000;BME280;15328;50.860;10.562;2023-02-19T07:16:52;96503.41;;;9.04;72.15
28000;BME280;15328;50.860;10.562;2023-02-19T07:21:52;96503.03;;;9.07;72.26
28000;BME280;15328;50.860;10.562;2023-02-19T07:26:53;96514.66;;;9.06;72.61
28000;BME280;15328;50.860;10.562;2023-02-19T07:31:53;96523.63;;;9.11;72.20
28000;BME280;15328;50.860;10.562;2023-02-19T07:36:53;96523.22;;;9.14;71.72
28000;BME280;15328;50.860;10.562;2023-02-19T07:41:54;96525.88;;;9.14;71.78
28000;BME280;15328;50.860;10.562;2023-02-19T07:46:54;96542.78;;;9.26;71.73
28000;BME280;15328;50.860;10.562;2023-02-19T07:51:54;96546.22;;;9.47;70.47
28000;BME280;15328;50.860;10.562;2023-02-19T07:56:55;96548.25;;;9.51;69.90
28000;BME280;15328;50.860;10.562;2023-02-19T08:01:58;96568.88;;;9.56;70.20
28000;BME280;15328;50.860;10.562;2023-02-19T08:07:17;96575.63;;;9.52;69.38
28000;BME280;15328;50.860;10.562;2023-02-19T08:12:17;96587.69;;;9.54;69.48
28000;BME280;15328;50.860;10.562;2023-02-19T08:17:36;96602.59;;;9.69;69.11
28000;BME280;15328;50.860;10.562;2023-02-19T08:22:36;96602.59;;;9.69;68.70
28000;BME280;15328;50.860;10.562;2023-02-19T08:27:37;96611.56;;;9.68;68.04
28000;BME280;15328;50.860;10.562;2023-02-19T08:32:37;96617.66;;;9.81;68.09
28000;BME280;15328;50.860;10.562;2023-02-19T08:37:37;96630.34;;;9.79;67.52
28000;BME280;15328;50.860;10.562;2023-02-19T08:42:38;96646.47;;;9.78;67.29
28000;BME280;15328;50.860;10.562;2023-02-19T08:47:38;96652.00;;;9.83;67.73
28000;BME280;15328;50.860;10.562;2023-02-19T08:52:39;96651.72;;;10.11;67.71
28000;BME280;15328;50.860;10.562;2023-02-19T08:57:39;96675.63;;;10.24;66.29
28000;BME280;15328;50.860;10.562;2023-02-19T09:02:40;96669.88;;;10.34;65.53
28000;BME280;15328;50.860;10.562;2023-02-19T09:07:41;96661.53;;;10.24;64.76
28000;BME280;15328;50.860;10.562;2023-02-19T09:12:42;96658.63;;;10.32;64.02
28000;BME280;15328;50.860;10.562;2023-02-19T09:17:42;96664.13;;;10.37;64.26
28000;BME280;15328;50.860;10.562;2023-02-19T09:22:43;96683.09;;;10.53;64.02
28000;BME280;15328;50.860;10.562;2023-02-19T09:27:43;96681.13;;;10.80;62.87
28000;BME280;15328;50.860;10.562;2023-02-19T09:32:43;96691.47;;;10.95;61.79
28000;BME280;15328;50.860;10.562;2023-02-19T09:37:44;96708.09;;;11.29;60.88
28000;BME280;15328;50.860;10.562;2023-02-19T09:42:44;96717.59;;;11.11;60.49
28000;BME280;15328;50.860;10.562;2023-02-19T09:47:45;96718.72;;;10.97;60.81
28000;BME280;15328;50.860;10.562;2023-02-19T09:52:50;96733.56;;;10.73;61.19
28000;BME280;15328;50.860;10.562;2023-02-19T09:57:53;96735.06;;;10.56;61.23
28000;BME280;15328;50.860;10.562;2023-02-19T10:03:21;96737.34;;;10.39;61.89
28000;BME280;15328;50.860;10.562;2023-02-19T10:08:20;96752.53;;;10.26;62.55
28000;BME280;15328;50.860;10.562;2023-02-19T10:13:30;96752.72;;;10.11;63.82
28000;BME280;15328;50.860;10.562;2023-02-19T10:18:37;96751.91;;;10.30;63.49
28000;BME280;15328;50.860;10.562;2023-02-19T10:23:39;96756.53;;;10.61;64.23
28000;BME280;15328;50.860;10.562;2023-02-19T10:28:40;96770.00;;;11.18;62.60
28000;BME280;15328;50.860;10.562;2023-02-19T10:34:15;96790.34;;;11.05;61.38
28000;BME280;15328;50.860;10.562;2023-02-19T10:44:31;96819.91;;;10.84;62.98
28000;BME280;15328;50.860;10.562;2023-02-19T10:49:44;96832.22;;;10.65;63.30
28000;BME280;15328;50.860;10.562;2023-02-19T10:54:54;96855.19;;;10.33;63.43
28000;BME280;15328;50.860;10.562;2023-02-19T11:00:27;96862.72;;;10.03;63.63
28000;BME280;15328;50.860;10.562;2023-02-19T11:05:29;96878.84;;;9.75;64.87
28000;BME280;15328;50.860;10.562;2023-02-19T11:10:38;96897.78;;;9.52;66.02
28000;BME280;15328;50.860;10.562;2023-02-19T11:15:39;96907.38;;;9.40;66.58
28000;BME280;15328;50.860;10.562;2023-02-19T11:20:52;96915.25;;;9.27;66.45
28000;BME280;15328;50.860;10.562;2023-02-19T11:25:55;96931.53;;;9.11;67.29
28000;BME280;15328;50.860;10.562;2023-02-19T11:36:31;96921.34;;;9.14;67.83
28000;BME280;15328;50.860;10.562;2023-02-19T11:41:49;96921.06;;;9.03;68.34
28000;BME280;15328;50.860;10.562;2023-02-19T11:47:21;96914.78;;;9.10;68.08
28000;BME280;15328;50.860;10.562;2023-02-19T11:52:54;96916.22;;;9.13;68.92
28000;BME280;15328;50.860;10.562;2023-02-19T12:09:03;96933.75;;;9.07;69.02
28000;BME280;15328;50.860;10.562;2023-02-19T12:20:11;96928.09;;;9.17;68.96
28000;BME280;15328;50.860;10.562;2023-02-19T12:31:01;96944.00;;;9.17;68.58
28000;BME280;15328;50.860;10.562;2023-02-19T12:46:37;96943.78;;;9.12;68.63
28000;BME280;15328;50.860;10.562;2023-02-19T12:51:49;96941.53;;;9.09;68.97
28000;BME280;15328;50.860;10.562;2023-02-19T12:57:09;96944.41;;;9.14;68.82
28000;BME280;15328;50.860;10.562;2023-02-19T13:02:20;96943.59;;;9.13;69.01
28000;BME280;15328;50.860;10.562;2023-02-19T13:07:44;96950.13;;;9.17;68.62
28000;BME280;15328;50.860;10.562;2023-02-19T13:12:48;96962.59;;;9.17;68.91
28000;BME280;15328;50.860;10.562;2023-02-19T13:17:52;96965.06;;;9.18;69.02
28000;BME280;15328;50.860;10.562;2023-02-19T13:23:32;96968.31;;;9.20;68.67
28000;BME280;15328;50.860;10.562;2023-02-19T13:40:19;96984.63;;;9.11;69.17
28000;BME280;15328;50.860;10.562;2023-02-19T13:45:30;96997.50;;;9.14;69.94
28000;BME280;15328;50.860;10.562;2023-02-19T13:50:32;96993.47;;;9.24;69.52
28000;BME280;15328;50.860;10.562;2023-02-19T14:00:49;96999.44;;;9.81;68.45
28000;BME280;15328;50.860;10.562;2023-02-19T14:05:59;97004.59;;;9.89;67.87
28000;BME280;15328;50.860;10.562;2023-02-19T14:10:59;97016.19;;;9.81;67.81
28000;BME280;15328;50.860;10.562;2023-02-19T14:16:04;97026.78;;;9.68;67.60
28000;BME280;15328;50.860;10.562;2023-02-19T14:21:22;97030.75;;;9.44;67.93
28000;BME280;15328;50.860;10.562;2023-02-19T14:26:25;97032.50;;;9.30;67.43
28000;BME280;15328;50.860;10.562;2023-02-19T14:31:31;97033.84;;;9.13;67.80
28000;BME280;15328;50.860;10.562;2023-02-19T14:36:36;97025.53;;;8.95;67.98
28000;BME280;15328;50.860;10.562;2023-02-19T14:41:43;97035.84;;;8.83;68.32
28000;BME280;15328;50.860;10.562;2023-02-19T14:47:02;97043.13;;;8.75;68.63
28000;BME280;15328;50.860;10.562;2023-02-19T14:52:06;97026.56;;;8.73;68.68
28000;BME280;15328;50.860;10.562;2023-02-19T14:57:31;97024.25;;;8.63;69.36
28000;BME280;15328;50.860;10.562;2023-02-19T15:02:41;97021.59;;;8.63;69.55
28000;BME280;15328;50.860;10.562;2023-02-19T15:07:42;97030.38;;;8.63;69.89
28000;BME280;15328;50.860;10.562;2023-02-19T15:13:17;97038.91;;;8.59;69.81
28000;BME280;15328;50.860;10.562;2023-02-19T15:18:19;97054.63;;;8.60;69.96
28000;BME280;15328;50.860;10.562;2023-02-19T15:23:22;97040.56;;;8.60;69.61
28000;BME280;15328;50.860;10.562;2023-02-19T15:33:26;97068.03;;;8.52;70.35
28000;BME280;15328;50.860;10.562;2023-02-19T15:38:27;97068.66;;;8.54;70.35
28000;BME280;15328;50.860;10.562;2023-02-19T15:54:05;97047.19;;;8.49;70.50
28000;BME280;15328;50.860;10.562;2023-02-19T15:59:34;97051.22;;;8.45;70.36
28000;BME280;15328;50.860;10.562;2023-02-19T16:04:39;97056.25;;;8.40;70.98
28000;BME280;15328;50.860;10.562;2023-02-19T16:09:41;97045.03;;;8.38;70.93
28000;BME280;15328;50.860;10.562;2023-02-19T16:14:41;97056.38;;;8.32;71.04
28000;BME280;15328;50.860;10.562;2023-02-19T16:24:54;97054.84;;;8.23;70.80
28000;BME280;15328;50.860;10.562;2023-02-19T16:29:55;97065.44;;;8.23;71.27
28000;BME280;15328;50.860;10.562;2023-02-19T16:34:56;97074.41;;;8.22;70.74
28000;BME280;15328;50.860;10.562;2023-02-19T16:45:17;97085.16;;;8.20;70.60
28000;BME280;15328;50.860;10.562;2023-02-19T16:50:20;97086.19;;;8.19;70.71
28000;BME280;15328;50.860;10.562;2023-02-19T16:55:22;97096.16;;;8.17;70.71
28000;BME280;15328;50.860;10.562;2023-02-19T17:00:26;97111.59;;;8.14;71.00
28000;BME280;15328;50.860;10.562;2023-02-19T17:05:28;97115.63;;;8.10;71.08
28000;BME280;15328;50.860;10.562;2023-02-19T17:10:30;97115.00;;;8.07;71.32
28000;BME280;15328;50.860;10.562;2023-02-19T17:15:33;97123.97;;;8.06;71.17
28000;BME280;15328;50.860;10.562;2023-02-19T17:20:41;97139.22;;;8.04;71.45
28000;BME280;15328;50.860;10.562;2023-02-19T17:25:42;97146.91;;;7.99;71.77
28000;BME280;15328;50.860;10.562;2023-02-19T17:30:43;97148.09;;;7.97;71.63
28000;BME280;15328;50.860;10.562;2023-02-19T17:35:46;97159.91;;;7.94;71.23
28000;BME280;15328;50.860;10.562;2023-02-19T17:40:46;97160.41;;;7.90;71.78
28000;BME280;15328;50.860;10.562;2023-02-19T17:45:47;97165.09;;;7.88;71.57
28000;BME280;15328;50.860;10.562;2023-02-19T17:50:47;97180.16;;;7.87;71.54
28000;BME280;15328;50.860;10.562;2023-02-19T17:55:49;97176.03;;;7.85;71.65
28000;BME280;15328;50.860;10.562;2023-02-19T18:00:49;97168.28;;;7.83;71.82
28000;BME280;15328;50.860;10.562;2023-02-19T18:05:50;97181.53;;;7.83;72.20
28000;BME280;15328;50.860;10.562;2023-02-19T18:10:50;97169.66;;;7.79;72.12
28000;BME280;15328;50.860;10.562;2023-02-19T18:15:51;97182.06;;;7.79;72.04
28000;BME280;15328;50.860;10.562;2023-02-19T18:20:52;97179.06;;;7.82;72.15
28000;BME280;15328;50.860;10.562;2023-02-19T18:25:53;97183.91;;;7.78;72.15
28000;BME280;15328;50.860;10.562;2023-02-19T18:30:53;97180.25;;;7.79;72.28
28000;BME280;15328;50.860;10.562;2023-02-19T18:35:53;97166.00;;;7.80;72.51
28000;BME280;15328;50.860;10.562;2023-02-19T18:40:54;97158.06;;;7.80;72.46
28000;BME280;15328;50.860;10.562;2023-02-19T18:45:54;97157.59;;;7.77;72.44
28000;BME280;15328;50.860;10.562;2023-02-19T18:50:54;97152.13;;;7.78;72.20
28000;BME280;15328;50.860;10.562;2023-02-19T18:55:55;97160.81;;;7.72;72.28
28000;BME280;15328;50.860;10.562;2023-02-19T19:00:56;97164.81;;;7.68;72.28
28000;BME280;15328;50.860;10.562;2023-02-19T19:05:58;97177.69;;;7.71;72.45
28000;BME280;15328;50.860;10.562;2023-02-19T19:10:59;97169.75;;;7.71;72.27
28000;BME280;15328;50.860;10.562;2023-02-19T19:15:59;97176.06;;;7.70;72.11
28000;BME280;15328;50.860;10.562;2023-02-19T19:20:59;97187.66;;;7.69;72.69
28000;BME280;15328;50.860;10.562;2023-02-19T19:26:05;97184.00;;;7.70;72.50
28000;BME280;15328;50.860;10.562;2023-02-19T19:31:06;97181.69;;;7.67;72.47
28000;BME280;15328;50.860;10.562;2023-02-19T19:36:07;97179.72;;;7.69;72.52
28000;BME280;15328;50.860;10.562;2023-02-19T19:41:07;97188.00;;;7.66;72.27
28000;BME280;15328;50.860;10.562;2023-02-19T19:46:08;97186.34;;;7.65;71.87
28000;BME280;15328;50.860;10.562;2023-02-19T19:51:09;97186.00;;;7.68;72.11
28000;BME280;15328;50.860;10.562;2023-02-19T19:56:09;97190.13;;;7.70;72.15
28000;BME280;15328;50.860;10.562;2023-02-19T20:01:10;97185.28;;;7.74;71.90
28000;BME280;15328;50.860;10.562;2023-02-19T20:06:10;97174.50;;;7.75;72.28
28000;BME280;15328;50.860;10.562;2023-02-19T20:11:10;97180.06;;;7.81;72.00
28000;BME280;15328;50.860;10.562;2023-02-19T20:16:11;97179.34;;;7.87;71.99
28000;BME280;15328;50.860;10.562;2023-02-19T20:21:13;97185.09;;;7.90;71.99
28000;BME280;15328;50.860;10.562;2023-02-19T20:26:20;97185.38;;;7.95;72.06
28000;BME280;15328;50.860;10.562;2023-02-19T20:31:21;97187.47;;;8.00;71.58
28000;BME280;15328;50.860;10.562;2023-02-19T20:36:21;97190.59;;;8.03;71.91
28000;BME280;15328;50.860;10.562;2023-02-19T20:41:26;97170.66;;;8.07;71.41
28000;BME280;15328;50.860;10.562;2023-02-19T20:46:27;97179.50;;;8.15;70.96
28000;BME280;15328;50.860;10.562;2023-02-19T20:51:28;97180.97;;;8.17;71.18
28000;BME280;15328;50.860;10.562;2023-02-19T20:56:29;97189.66;;;8.11;70.70
28000;BME280;15328;50.860;10.562;2023-02-19T21:01:29;97194.22;;;8.17;70.39
28000;BME280;15328;50.860;10.562;2023-02-19T21:06:29;97203.44;;;8.21;70.29
28000;BME280;15328;50.860;10.562;2023-02-19T21:11:30;97200.34;;;8.18;70.58
28000;BME280;15328;50.860;10.562;2023-02-19T21:16:31;97201.16;;;8.18;70.15
28000;BME280;15328;50.860;10.562;2023-02-19T21:21:31;97211.56;;;8.20;70.37
28000;BME280;15328;50.860;10.562;2023-02-19T21:26:38;97211.50;;;8.28;69.80
28000;BME280;15328;50.860;10.562;2023-02-19T21:31:41;97221.72;;;8.31;70.06
28000;BME280;15328;50.860;10.562;2023-02-19T21:36:41;97224.19;;;8.32;69.75
28000;BME280;15328;50.860;10.562;2023-02-19T21:41:42;97228.41;;;8.27;70.09
28000;BME280;15328;50.860;10.562;2023-02-19T21:46:42;97234.16;;;8.30;69.92
28000;BME280;15328;50.860;10.562;2023-02-19T21:51:44;97227.03;;;8.31;69.94
28000;BME280;15328;50.860;10.562;2023-02-19T21:56:47;97223.22;;;8.33;69.60
28000;BME280;15328;50.860;10.562;2023-02-19T22:01:47;97203.16;;;8.31;70.04
28000;BME280;15328;50.860;10.562;2023-02-19T22:06:52;97194.06;;;8.33;69.46
28000;BME280;15328;50.860;10.562;2023-02-19T22:11:53;97208.97;;;8.34;69.75
28000;BME280;15328;50.860;10.562;2023-02-19T22:16:53;97206.94;;;8.36;69.63
28000;BME280;15328;50.860;10.562;2023-02-19T22:21:53;97202.16;;;8.32;69.13
28000;BME280;15328;50.860;10.562;2023-02-19T22:26:55;97207.19;;;8.27;70.16
28000;BME280;15328;50.860;10.562;2023-02-19T22:31:56;97211.75;;;8.33;69.80
28000;BME280;15328;50.860;10.562;2023-02-19T22:36:56;97211.75;;;8.33;69.49
28000;BME280;15328;50.860;10.562;2023-02-19T22:41:56;97215.78;;;8.29;69.68
28000;BME280;15328;50.860;10.562;2023-02-19T22:46:57;97218.44;;;8.29;69.86
28000;BME280;15328;50.860;10.562;2023-02-19T22:52:01;97223.09;;;8.27;70.07
28000;BME280;15328;50.860;10.562;2023-02-19T22:57:02;97226.31;;;8.22;70.18
28000;BME280;15328;50.860;10.562;2023-02-19T23:02:02;97229.78;;;8.23;70.44
28000;BME280;15328;50.860;10.562;2023-02-19T23:07:05;97226.59;;;8.27;70.05
28000;BME280;15328;50.860;10.562;2023-02-19T23:12:08;97230.78;;;8.22;69.69
28000;BME280;15328;50.860;10.562;2023-02-19T23:17:09;97234.09;;;8.24;68.50
28000;BME280;15328;50.860;10.562;2023-02-19T23:22:09;97237.44;;;8.18;67.99
28000;BME280;15328;50.860;10.562;2023-02-19T23:27:09;97230.16;;;8.05;68.11
28000;BME280;15328;50.860;10.562;2023-02-19T23:32:11;97227.78;;;7.95;68.26
28000;BME280;15328;50.860;10.562;2023-02-19T23:37:11;97222.28;;;7.97;67.54
28000;BME280;15328;50.860;10.562;2023-02-19T23:42:14;97219.66;;;7.97;67.86
28000;BME280;15328;50.860;10.562;2023-02-19T23:47:15;97222.63;;;7.94;67.72
28000;BME280;15328;50.860;10.562;2023-02-19T23:52:16;97211.22;;;7.93;67.74
28000;BME280;15328;50.860;10.562;2023-02-19T23:57:16;97201.91;;;7.83;67.35
